Aviation Digital Data Service (ADDS)

Output produced by METARs form (0745 UTC 24 May 2018)
found at http://www.aviationweather.gov/adds/metars/
 
KUAO 240520Z 2406/2506 21003KT P6SM SCT015 OVC030 
     FM240900 21003KT P6SM BKN015 OVC030 
     FM241800 35004KT P6SM SCT015 BKN030 
     FM242000 36006KT P6SM SCT030 BKN060
       
KUES 240520Z 2406/2506 VRB03KT P6SM SKC 
     FM241600 19007KT P6SM FEW250
       
KUIN 240520Z 2406/2506 VRB04KT P6SM SCT250 
     FM241600 16007KT P6SM FEW040 SCT250
       
KUKI 240522Z 2406/2506 02005KT P6SM OVC026 
     FM241000 VRB02KT P6SM OVC025 
     FM241800 14008KT P6SM SCT025 SCT060 
     FM250100 02006KT P6SM BKN050
       
KUNV 240528Z 2406/2506 00000KT P6SM SKC 
     FM241330 VRB03KT P6SM SKC
       
KUTS 240520Z 2406/2506 00000KT P6SM SKC 
     FM241600 VRB03KT P6SM SCT030 
     FM241800 12005KT P6SM SCT250 
     FM250300 VRB03KT P6SM SCT250